sensor_id;sensor_type;location;lat;lon;timestamp;pressure;altitude;pressure_sealevel;temperature;humidity
22031;BME280;11179;52.106;21.024;2023-09-12T00:02:12;100116.81;;;16.88;68.95
22031;BME280;11179;52.106;21.024;2023-09-12T00:04:53;100131.06;;;16.95;69.08
22031;BME280;11179;52.106;21.024;2023-09-12T00:07:22;100149.28;;;17.01;69.24
22031;BME280;11179;52.106;21.024;2023-09-12T00:09:54;100123.69;;;16.91;69.37
22031;BME280;11179;52.106;21.024;2023-09-12T00:12:24;100161.91;;;17.07;69.39
22031;BME280;11179;52.106;21.024;2023-09-12T00:17:48;100095.22;;;16.71;69.06
22031;BME280;11179;52.106;21.024;2023-09-12T00:20:17;100125.72;;;16.85;69.34
22031;BME280;11179;52.106;21.024;2023-09-12T00:22:42;100109.16;;;16.66;69.44
22031;BME280;11179;52.106;21.024;2023-09-12T00:25:24;100132.81;;;16.77;69.56
22031;BME280;11179;52.106;21.024;2023-09-12T00:27:50;100130.13;;;16.72;69.78
22031;BME280;11179;52.106;21.024;2023-09-12T00:30:19;100154.50;;;16.89;69.84
22031;BME280;11179;52.106;21.024;2023-09-12T00:32:53;100082.09;;;16.44;69.85
22031;BME280;11179;52.106;21.024;2023-09-12T00:35:22;100076.91;;;16.38;69.81
22031;BME280;11179;52.106;21.024;2023-09-12T00:37:47;100101.19;;;16.46;69.90
22031;BME280;11179;52.106;21.024;2023-09-12T00:40:21;100130.34;;;16.57;70.14
22031;BME280;11179;52.106;21.024;2023-09-12T00:43:02;100121.09;;;16.48;70.26
22031;BME280;11179;52.106;21.024;2023-09-12T00:45:33;100102.19;;;16.36;70.39
22031;BME280;11179;52.106;21.024;2023-09-12T00:48:07;100117.81;;;16.46;70.52
22031;BME280;11179;52.106;21.024;2023-09-12T00:50:38;100118.34;;;16.48;70.40
22031;BME280;11179;52.106;21.024;2023-09-12T00:53:15;100135.06;;;16.57;70.42
22031;BME280;11179;52.106;21.024;2023-09-12T00:55:57;100081.00;;;16.27;70.33
22031;BME280;11179;52.106;21.024;2023-09-12T00:58:26;100102.19;;;16.36;70.59
22031;BME280;11179;52.106;21.024;2023-09-12T01:01:01;100120.28;;;16.47;70.54
22031;BME280;11179;52.106;21.024;2023-09-12T01:03:31;100079.97;;;16.23;70.47
22031;BME280;11179;52.106;21.024;2023-09-12T01:06:07;100074.22;;;16.19;70.33
22031;BME280;11179;52.106;21.024;2023-09-12T01:08:36;100114.28;;;16.40;70.60
22031;BME280;11179;52.106;21.024;2023-09-12T01:11:04;100108.34;;;16.33;70.53
22031;BME280;11179;52.106;21.024;2023-09-12T01:13:35;100136.31;;;16.50;70.31
22031;BME280;11179;52.106;21.024;2023-09-12T01:16:11;100120.94;;;16.39;70.69
22031;BME280;11179;52.106;21.024;2023-09-12T01:18:51;100123.66;;;16.44;70.38
22031;BME280;11179;52.106;21.024;2023-09-12T01:24:26;100154.56;;;16.51;70.62
22031;BME280;11179;52.106;21.024;2023-09-12T01:30:02;100151.06;;;16.46;70.67
22031;BME280;11179;52.106;21.024;2023-09-12T01:32:33;100151.66;;;16.43;70.52
22031;BME280;11179;52.106;21.024;2023-09-12T01:35:11;100135.81;;;16.30;70.54
22031;BME280;11179;52.106;21.024;2023-09-12T01:37:48;100098.78;;;16.07;70.49
22031;BME280;11179;52.106;21.024;2023-09-12T01:40:27;100118.53;;;16.19;70.70
22031;BME280;11179;52.106;21.024;2023-09-12T01:43:07;100087.66;;;15.93;70.80
22031;BME280;11179;52.106;21.024;2023-09-12T01:45:36;100086.00;;;15.92;70.71
22031;BME280;11179;52.106;21.024;2023-09-12T01:48:11;100081.47;;;15.83;70.59
22031;BME280;11179;52.106;21.024;2023-09-12T01:51:06;100147.28;;;16.23;70.71
22031;BME280;11179;52.106;21.024;2023-09-12T01:53:55;100083.94;;;15.84;70.67
22031;BME280;11179;52.106;21.024;2023-09-12T02:00:13;100127.38;;;16.02;70.74
22031;BME280;11179;52.106;21.024;2023-09-12T02:02:54;100089.00;;;15.77;70.76
22031;BME280;11179;52.106;21.024;2023-09-12T02:05:36;100099.91;;;15.87;70.88
22031;BME280;11179;52.106;21.024;2023-09-12T02:12:07;100141.59;;;16.14;70.79
22031;BME280;11179;52.106;21.024;2023-09-12T02:14:57;100069.81;;;15.62;71.04
22031;BME280;11179;52.106;21.024;2023-09-12T02:17:43;100142.28;;;16.06;71.07
22031;BME280;11179;52.106;21.024;2023-09-12T02:23:45;100137.34;;;16.03;71.44
22031;BME280;11179;52.106;21.024;2023-09-12T02:29:41;100146.16;;;16.05;71.48
22031;BME280;11179;52.106;21.024;2023-09-12T02:32:46;100145.13;;;16.01;71.84
22031;BME280;11179;52.106;21.024;2023-09-12T02:35:27;100135.03;;;15.92;71.67
22031;BME280;11179;52.106;21.024;2023-09-12T02:38:25;100135.84;;;15.92;71.71
22031;BME280;11179;52.106;21.024;2023-09-12T02:41:14;100124.31;;;15.85;71.60
22031;BME280;11179;52.106;21.024;2023-09-12T02:43:47;100111.75;;;15.74;71.71
22031;BME280;11179;52.106;21.024;2023-09-12T02:46:30;100110.22;;;15.63;71.71
22031;BME280;11179;52.106;21.024;2023-09-12T02:49:09;100108.00;;;15.65;71.51
22031;BME280;11179;52.106;21.024;2023-09-12T02:51:45;100111.84;;;15.69;71.72
22031;BME280;11179;52.106;21.024;2023-09-12T02:54:49;100144.22;;;15.87;71.68
22031;BME280;11179;52.106;21.024;2023-09-12T03:04:30;100089.00;;;15.34;71.37
22031;BME280;11179;52.106;21.024;2023-09-12T03:10:32;100089.09;;;15.29;71.46
22031;BME280;11179;52.106;21.024;2023-09-12T03:13:26;100154.47;;;15.68;71.48
22031;BME280;11179;52.106;21.024;2023-09-12T03:19:12;100152.84;;;15.62;71.19
22031;BME280;11179;52.106;21.024;2023-09-12T03:21:38;100095.84;;;15.18;71.46
22031;BME280;11179;52.106;21.024;2023-09-12T03:24:42;100146.97;;;15.44;71.60
22031;BME280;11179;52.106;21.024;2023-09-12T03:27:30;100086.84;;;15.07;71.50
22031;BME280;11179;52.106;21.024;2023-09-12T03:30:03;100107.81;;;15.14;71.59
22031;BME280;11179;52.106;21.024;2023-09-12T03:32:38;100085.50;;;15.05;71.77
22031;BME280;11179;52.106;21.024;2023-09-12T03:35:17;100085.34;;;14.96;71.75
22031;BME280;11179;52.106;21.024;2023-09-12T03:37:50;100161.94;;;15.43;71.65
22031;BME280;11179;52.106;21.024;2023-09-12T03:40:28;100135.88;;;15.26;71.63
22031;BME280;11179;52.106;21.024;2023-09-12T03:43:13;100109.88;;;15.03;71.84
22031;BME280;11179;52.106;21.024;2023-09-12T03:45:44;100120.28;;;15.11;71.61
22031;BME280;11179;52.106;21.024;2023-09-12T03:48:32;100086.00;;;14.88;71.82
22031;BME280;11179;52.106;21.024;2023-09-12T03:51:52;100095.69;;;14.86;71.71
22031;BME280;11179;52.106;21.024;2023-09-12T03:54:26;100096.75;;;14.90;71.68
22031;BME280;11179;52.106;21.024;2023-09-12T03:57:00;100153.88;;;15.23;72.05
22031;BME280;11179;52.106;21.024;2023-09-12T03:59:34;100135.22;;;15.10;72.18
22031;BME280;11179;52.106;21.024;2023-09-12T04:05:15;100106.75;;;14.86;72.21
22031;BME280;11179;52.106;21.024;2023-09-12T04:10:55;100130.34;;;15.02;72.11
22031;BME280;11179;52.106;21.024;2023-09-12T04:13:39;100136.34;;;15.09;72.31
22031;BME280;11179;52.106;21.024;2023-09-12T04:16:44;100148.94;;;15.20;72.31
22031;BME280;11179;52.106;21.024;2023-09-12T04:19:42;100092.41;;;14.84;72.15
22031;BME280;11179;52.106;21.024;2023-09-12T04:22:28;100119.34;;;14.97;72.31
22031;BME280;11179;52.106;21.024;2023-09-12T04:25:32;100142.84;;;15.18;72.37
22031;BME280;11179;52.106;21.024;2023-09-12T04:28:13;100137.94;;;15.15;72.13
22031;BME280;11179;52.106;21.024;2023-09-12T04:37:12;100101.34;;;14.99;72.12
22031;BME280;11179;52.106;21.024;2023-09-12T04:39:46;100173.00;;;15.43;72.06
22031;BME280;11179;52.106;21.024;2023-09-12T04:42:38;100143.34;;;15.25;72.05
22031;BME280;11179;52.106;21.024;2023-09-12T04:45:20;100178.19;;;15.50;72.38
22031;BME280;11179;52.106;21.024;2023-09-12T04:48:05;100185.81;;;15.58;72.26
22031;BME280;11179;52.106;21.024;2023-09-12T04:50:49;100142.34;;;15.40;72.14
22031;BME280;11179;52.106;21.024;2023-09-12T04:57:03;100145.47;;;15.76;72.10
22031;BME280;11179;52.106;21.024;2023-09-12T04:59:51;100135.38;;;15.85;72.00
22031;BME280;11179;52.106;21.024;2023-09-12T05:02:31;100125.59;;;15.93;71.75
22031;BME280;11179;52.106;21.024;2023-09-12T05:05:00;100179.59;;;16.46;71.57
22031;BME280;11179;52.106;21.024;2023-09-12T05:07:27;100112.88;;;16.10;71.18
22031;BME280;11179;52.106;21.024;2023-09-12T05:10:06;100140.97;;;16.36;70.97
22031;BME280;11179;52.106;21.024;2023-09-12T05:12:44;100140.50;;;16.48;70.80
22031;BME280;11179;52.106;21.024;2023-09-12T05:16:03;100129.41;;;16.80;70.71
22031;BME280;11179;52.106;21.024;2023-09-12T05:19:09;100187.22;;;17.61;69.93
22031;BME280;11179;52.106;21.024;2023-09-12T05:21:53;100123.28;;;17.38;69.58
22031;BME280;11179;52.106;21.024;2023-09-12T05:24:42;100112.81;;;17.49;69.23
22031;BME280;11179;52.106;21.024;2023-09-12T05:30:30;100185.75;;;18.40;68.54
22031;BME280;11179;52.106;21.024;2023-09-12T05:33:19;100195.66;;;18.99;67.96
22031;BME280;11179;52.106;21.024;2023-09-12T05:36:04;100147.34;;;19.26;66.77
22031;BME280;11179;52.106;21.024;2023-09-12T05:38:45;100135.19;;;19.70;65.42
22031;BME280;11179;52.106;21.024;2023-09-12T05:41:16;100134.44;;;20.13;64.98
22031;BME280;11179;52.106;21.024;2023-09-12T05:46:52;100187.88;;;21.39;62.76
22031;BME280;11179;52.106;21.024;2023-09-12T05:49:28;100194.03;;;21.62;61.55
22031;BME280;11179;52.106;21.024;2023-09-12T05:52:01;100173.31;;;21.93;60.53
22031;BME280;11179;52.106;21.024;2023-09-12T05:58:47;100146.91;;;22.65;58.24
22031;BME280;11179;52.106;21.024;2023-09-12T06:01:27;100150.34;;;22.82;57.89
22031;BME280;11179;52.106;21.024;2023-09-12T06:07:25;100199.13;;;23.27;56.08
22031;BME280;11179;52.106;21.024;2023-09-12T06:10:26;100174.13;;;23.21;56.29
22031;BME280;11179;52.106;21.024;2023-09-12T06:19:30;100183.22;;;24.68;52.85
22031;BME280;11179;52.106;21.024;2023-09-12T06:22:11;100152.13;;;24.89;52.19
22031;BME280;11179;52.106;21.024;2023-09-12T06:24:46;100147.91;;;25.11;50.61
22031;BME280;11179;52.106;21.024;2023-09-12T06:27:59;100157.06;;;25.39;49.61
22031;BME280;11179;52.106;21.024;2023-09-12T06:34:03;100163.38;;;25.83;48.95
22031;BME280;11179;52.106;21.024;2023-09-12T06:37:25;100204.59;;;26.26;48.77
22031;BME280;11179;52.106;21.024;2023-09-12T06:40:29;100164.22;;;26.38;47.85
22031;BME280;11179;52.106;21.024;2023-09-12T06:47:07;100153.44;;;26.59;46.92
22031;BME280;11179;52.106;21.024;2023-09-12T06:50:08;100147.13;;;26.27;46.81
22031;BME280;11179;52.106;21.024;2023-09-12T06:53:03;100175.22;;;26.82;46.09
22031;BME280;11179;52.106;21.024;2023-09-12T06:56:16;100174.47;;;27.27;45.46
22031;BME280;11179;52.106;21.024;2023-09-12T07:02:22;100206.75;;;28.28;43.11
22031;BME280;11179;52.106;21.024;2023-09-12T07:05:04;100174.00;;;28.23;43.85
22031;BME280;11179;52.106;21.024;2023-09-12T07:07:54;100151.97;;;28.32;42.86
22031;BME280;11179;52.106;21.024;2023-09-12T07:10:20;100201.19;;;28.98;42.19
22031;BME280;11179;52.106;21.024;2023-09-12T07:12:52;100168.13;;;28.65;41.26
22031;BME280;11179;52.106;21.024;2023-09-12T07:15:26;100187.34;;;28.86;41.46
22031;BME280;11179;52.106;21.024;2023-09-12T07:18:00;100170.16;;;29.05;40.75
22031;BME280;11179;52.106;21.024;2023-09-12T07:20:34;100191.16;;;29.41;40.28
22031;BME280;11179;52.106;21.024;2023-09-12T07:23:22;100166.19;;;29.50;39.45
22031;BME280;11179;52.106;21.024;2023-09-12T07:25:57;100205.31;;;29.89;39.03
22031;BME280;11179;52.106;21.024;2023-09-12T07:31:31;100188.59;;;30.21;38.57
22031;BME280;11179;52.106;21.024;2023-09-12T07:34:11;100182.63;;;30.44;38.21
22031;BME280;11179;52.106;21.024;2023-09-12T07:36:54;100178.94;;;30.40;38.04
22031;BME280;11179;52.106;21.024;2023-09-12T07:39:25;100169.66;;;30.43;37.72
22031;BME280;11179;52.106;21.024;2023-09-12T07:41:57;100171.75;;;30.64;36.87
22031;BME280;11179;52.106;21.024;2023-09-12T07:44:51;100161.25;;;30.61;36.89
22031;BME280;11179;52.106;21.024;2023-09-12T07:48:01;100185.28;;;30.99;37.05
22031;BME280;11179;52.106;21.024;2023-09-12T07:50:35;100179.19;;;31.04;36.29
22031;BME280;11179;52.106;21.024;2023-09-12T07:53:11;100204.41;;;31.34;36.37
22031;BME280;11179;52.106;21.024;2023-09-12T07:55:39;100177.66;;;31.35;36.32
22031;BME280;11179;52.106;21.024;2023-09-12T07:58:44;100161.81;;;31.23;35.97
22031;BME280;11179;52.106;21.024;2023-09-12T08:01:16;100173.63;;;31.53;35.47
22031;BME280;11179;52.106;21.024;2023-09-12T08:03:53;100197.97;;;31.79;35.36
22031;BME280;11179;52.106;21.024;2023-09-12T08:06:18;100208.91;;;31.95;35.36
22031;BME280;11179;52.106;21.024;2023-09-12T08:08:43;100199.56;;;31.91;35.10
22031;BME280;11179;52.106;21.024;2023-09-12T08:11:09;100199.16;;;31.85;35.28
22031;BME280;11179;52.106;21.024;2023-09-12T08:13:43;100195.50;;;31.85;35.32
22031;BME280;11179;52.106;21.024;2023-09-12T08:16:21;100170.78;;;31.60;34.84
22031;BME280;11179;52.106;21.024;2023-09-12T08:18:57;100158.22;;;31.51;35.42
22031;BME280;11179;52.106;21.024;2023-09-12T08:21:26;100180.53;;;31.81;35.20
22031;BME280;11179;52.106;21.024;2023-09-12T08:24:06;100202.00;;;32.00;35.51
22031;BME280;11179;52.106;21.024;2023-09-12T08:26:43;100184.19;;;31.81;35.22
22031;BME280;11179;52.106;21.024;2023-09-12T08:29:09;100200.41;;;31.95;35.16
22031;BME280;11179;52.106;21.024;2023-09-12T08:31:55;100184.94;;;32.07;34.62
22031;BME280;11179;52.106;21.024;2023-09-12T08:37:15;100196.19;;;32.56;34.26
22031;BME280;11179;52.106;21.024;2023-09-12T08:39:42;100169.44;;;32.36;33.43
22031;BME280;11179;52.106;21.024;2023-09-12T08:42:28;100210.03;;;32.47;33.96
22031;BME280;11179;52.106;21.024;2023-09-12T08:45:16;100165.00;;;32.24;33.89
22031;BME280;11179;52.106;21.024;2023-09-12T08:48:09;100162.94;;;32.46;33.48
22031;BME280;11179;52.106;21.024;2023-09-12T08:50:41;100198.06;;;32.95;33.78
22031;BME280;11179;52.106;21.024;2023-09-12T08:53:24;100179.38;;;32.94;33.34
22031;BME280;11179;52.106;21.024;2023-09-12T08:55:59;100149.31;;;32.89;33.26
22031;BME280;11179;52.106;21.024;2023-09-12T08:58:41;100178.88;;;33.10;32.64
22031;BME280;11179;52.106;21.024;2023-09-12T09:01:35;100156.06;;;33.17;32.71
22031;BME280;11179;52.106;21.024;2023-09-12T09:04:21;100156.00;;;33.24;31.56
22031;BME280;11179;52.106;21.024;2023-09-12T09:06:53;100140.75;;;32.96;31.79
22031;BME280;11179;52.106;21.024;2023-09-12T09:09:45;100142.78;;;32.96;32.13
22031;BME280;11179;52.106;21.024;2023-09-12T09:12:19;100179.00;;;32.88;32.29
22031;BME280;11179;52.106;21.024;2023-09-12T09:15:02;100155.47;;;32.81;32.68
22031;BME280;11179;52.106;21.024;2023-09-12T09:17:56;100169.03;;;33.21;32.46
22031;BME280;11179;52.106;21.024;2023-09-12T09:20:33;100178.69;;;33.38;32.71
22031;BME280;11179;52.106;21.024;2023-09-12T09:23:09;100146.25;;;33.28;31.88
22031;BME280;11179;52.106;21.024;2023-09-12T09:25:40;100150.28;;;33.31;31.64
22031;BME280;11179;52.106;21.024;2023-09-12T09:30:53;100166.94;;;33.36;31.15
22031;BME280;11179;52.106;21.024;2023-09-12T09:33:44;100138.16;;;33.27;30.59
22031;BME280;11179;52.106;21.024;2023-09-12T09:36:20;100162.34;;;33.49;30.46
22031;BME280;11179;52.106;21.024;2023-09-12T09:38:48;100136.44;;;33.36;29.93
22031;BME280;11179;52.106;21.024;2023-09-12T09:41:28;100160.91;;;33.20;29.84
22031;BME280;11179;52.106;21.024;2023-09-12T09:44:11;100160.19;;;33.05;29.26
22031;BME280;11179;52.106;21.024;2023-09-12T09:46:51;100149.63;;;33.06;30.05
22031;BME280;11179;52.106;21.024;2023-09-12T09:49:23;100150.47;;;33.02;28.91
22031;BME280;11179;52.106;21.024;2023-09-12T09:51:49;100133.97;;;32.76;29.11
22031;BME280;11179;52.106;21.024;2023-09-12T09:56:58;100166.06;;;32.70;30.61
22031;BME280;11179;52.106;21.024;2023-09-12T09:59:28;100153.66;;;32.35;30.63
22031;BME280;11179;52.106;21.024;2023-09-12T10:02:00;100160.91;;;32.43;30.38
22031;BME280;11179;52.106;21.024;2023-09-12T10:04:30;100112.25;;;32.30;29.91
22031;BME280;11179;52.106;21.024;2023-09-12T10:07:14;100124.03;;;32.33;29.82
22031;BME280;11179;52.106;21.024;2023-09-12T10:10:08;100168.16;;;32.58;28.61
22031;BME280;11179;52.106;21.024;2023-09-12T10:12:41;100152.41;;;32.40;28.49
22031;BME280;11179;52.106;21.024;2023-09-12T10:15:10;100138.19;;;32.40;29.26
22031;BME280;11179;52.106;21.024;2023-09-12T10:17:59;100162.44;;;32.65;29.24
22031;BME280;11179;52.106;21.024;2023-09-12T10:21:10;100121.13;;;32.47;29.57
22031;BME280;11179;52.106;21.024;2023-09-12T10:23:59;100140.22;;;32.39;28.76
22031;BME280;11179;52.106;21.024;2023-09-12T10:26:25;100162.13;;;32.46;28.88
22031;BME280;11179;52.106;21.024;2023-09-12T10:28:55;100111.53;;;32.05;29.00
22031;BME280;11179;52.106;21.024;2023-09-12T10:31:31;100115.13;;;32.09;29.45
22031;BME280;11179;52.106;21.024;2023-09-12T10:34:10;100116.75;;;32.17;29.57
22031;BME280;11179;52.106;21.024;2023-09-12T10:36:41;100120.84;;;32.06;29.72
22031;BME280;11179;52.106;21.024;2023-09-12T10:39:08;100142.31;;;32.10;30.00
22031;BME280;11179;52.106;21.024;2023-09-12T10:41:50;100137.06;;;32.05;30.06
22031;BME280;11179;52.106;21.024;2023-09-12T10:44:39;100118.06;;;31.88;29.35
22031;BME280;11179;52.106;21.024;2023-09-12T10:47:22;100152.44;;;32.18;29.63
22031;BME280;11179;52.106;21.024;2023-09-12T10:49:53;100105.47;;;31.92;29.35
22031;BME280;11179;52.106;21.024;2023-09-12T10:52:36;100119.25;;;31.90;28.81
22031;BME280;11179;52.106;21.024;2023-09-12T10:55:07;100103.88;;;31.67;29.46
22031;BME280;11179;52.106;21.024;2023-09-12T10:57:33;100152.13;;;31.67;30.55
22031;BME280;11179;52.106;21.024;2023-09-12T11:00:31;100135.91;;;31.24;30.49
22031;BME280;11179;52.106;21.024;2023-09-12T11:03:48;100104.22;;;30.76;30.92
22031;BME280;11179;52.106;21.024;2023-09-12T11:06:51;100146.81;;;31.12;30.99
22031;BME280;11179;52.106;21.024;2023-09-12T11:09:18;100140.38;;;31.33;30.75
22031;BME280;11179;52.106;21.024;2023-09-12T11:12:09;100132.28;;;31.28;30.09
22031;BME280;11179;52.106;21.024;2023-09-12T11:15:04;100144.44;;;31.49;30.39
22031;BME280;11179;52.106;21.024;2023-09-12T11:17:47;100116.47;;;31.55;29.23
22031;BME280;11179;52.106;21.024;2023-09-12T11:20:22;100114.44;;;31.45;29.15
22031;BME280;11179;52.106;21.024;2023-09-12T11:26:14;100089.66;;;30.78;30.55
22031;BME280;11179;52.106;21.024;2023-09-12T11:32:24;100071.03;;;30.84;30.89
22031;BME280;11179;52.106;21.024;2023-09-12T11:34:53;100077.13;;;30.86;30.22
22031;BME280;11179;52.106;21.024;2023-09-12T11:42:41;100139.94;;;31.23;30.67
22031;BME280;11179;52.106;21.024;2023-09-12T11:45:42;100097.38;;;31.06;30.11
22031;BME280;11179;52.106;21.024;2023-09-12T11:48:15;100098.19;;;31.10;30.36
22031;BME280;11179;52.106;21.024;2023-09-12T11:51:06;100132.28;;;31.24;30.21
22031;BME280;11179;52.106;21.024;2023-09-12T11:53:38;100120.09;;;31.02;30.64
22031;BME280;11179;52.106;21.024;2023-09-12T11:56:07;100094.13;;;30.82;30.60
22031;BME280;11179;52.106;21.024;2023-09-12T11:58:35;100130.63;;;31.02;30.80
22031;BME280;11179;52.106;21.024;2023-09-12T12:01:01;100124.50;;;30.89;30.43
22031;BME280;11179;52.106;21.024;2023-09-12T12:03:28;100116.78;;;30.82;30.37
22031;BME280;11179;52.106;21.024;2023-09-12T12:08:48;100127.75;;;30.95;29.75
22031;BME280;11179;52.106;21.024;2023-09-12T12:11:34;100098.19;;;30.85;29.92
22031;BME280;11179;52.106;21.024;2023-09-12T12:14:13;100066.06;;;30.42;29.91
22031;BME280;11179;52.106;21.024;2023-09-12T12:16:56;100053.47;;;30.29;30.20
22031;BME280;11179;52.106;21.024;2023-09-12T12:19:30;100064.84;;;30.32;31.12
22031;BME280;11179;52.106;21.024;2023-09-12T12:22:01;100115.91;;;30.68;30.85
22031;BME280;11179;52.106;21.024;2023-09-12T12:24:45;100096.91;;;30.68;30.78
22031;BME280;11179;52.106;21.024;2023-09-12T12:27:14;100067.72;;;30.46;30.33
22031;BME280;11179;52.106;21.024;2023-09-12T12:29:48;100080.28;;;30.60;30.34
22031;BME280;11179;52.106;21.024;2023-09-12T12:32:29;100095.69;;;30.69;30.18
22031;BME280;11179;52.106;21.024;2023-09-12T12:34:55;100110.25;;;30.68;30.55
22031;BME280;11179;52.106;21.024;2023-09-12T12:37:31;100046.91;;;30.10;30.94
22031;BME280;11179;52.106;21.024;2023-09-12T12:39:58;100076.47;;;30.16;31.55
22031;BME280;11179;52.106;21.024;2023-09-12T12:42:33;100106.84;;;30.19;31.38
22031;BME280;11179;52.106;21.024;2023-09-12T12:44:59;100107.16;;;30.11;31.76
22031;BME280;11179;52.106;21.024;2023-09-12T12:47:24;100103.94;;;30.12;31.68
22031;BME280;11179;52.106;21.024;2023-09-12T12:49:51;100107.59;;;30.13;31.75
22031;BME280;11179;52.106;21.024;2023-09-12T12:52:22;100106.72;;;30.02;32.20
22031;BME280;11179;52.106;21.024;2023-09-12T12:54:48;100107.53;;;29.95;32.31
22031;BME280;11179;52.106;21.024;2023-09-12T12:57:23;100097.75;;;29.85;32.79
22031;BME280;11179;52.106;21.024;2023-09-12T12:59:56;100101.81;;;29.88;33.07
22031;BME280;11179;52.106;21.024;2023-09-12T13:02:28;100094.56;;;29.94;32.29
22031;BME280;11179;52.106;21.024;2023-09-12T13:04:57;100095.03;;;30.07;31.91
22031;BME280;11179;52.106;21.024;2023-09-12T13:07:25;100065.44;;;29.97;31.43
22031;BME280;11179;52.106;21.024;2023-09-12T13:09:51;100042.72;;;29.76;31.22
22031;BME280;11179;52.106;21.024;2023-09-12T13:12:16;100057.25;;;29.74;31.46
22031;BME280;11179;52.106;21.024;2023-09-12T13:14:43;100093.66;;;29.76;31.12
22031;BME280;11179;52.106;21.024;2023-09-12T13:17:17;100092.06;;;29.78;31.25
22031;BME280;11179;52.106;21.024;2023-09-12T13:19:56;100058.81;;;29.65;30.64
22031;BME280;11179;52.106;21.024;2023-09-12T13:22:22;100095.78;;;29.93;31.12
22031;BME280;11179;52.106;21.024;2023-09-12T13:27:30;100071.03;;;29.83;31.12
22031;BME280;11179;52.106;21.024;2023-09-12T13:29:58;100076.69;;;29.83;32.08
22031;BME280;11179;52.106;21.024;2023-09-12T13:32:24;100043.00;;;29.60;32.49
22031;BME280;11179;52.106;21.024;2023-09-12T13:34:50;100068.16;;;29.69;32.26
22031;BME280;11179;52.106;21.024;2023-09-12T13:37:19;100050.59;;;29.49;31.80
22031;BME280;11179;52.106;21.024;2023-09-12T13:39:46;100081.88;;;29.67;31.83
22031;BME280;11179;52.106;21.024;2023-09-12T13:42:17;100055.91;;;29.54;31.74
22031;BME280;11179;52.106;21.024;2023-09-12T13:45:00;100061.94;;;29.56;31.92
22031;BME280;11179;52.106;21.024;2023-09-12T13:47:26;100049.03;;;29.55;31.68
22031;BME280;11179;52.106;21.024;2023-09-12T13:49:55;100037.59;;;29.37;32.08
22031;BME280;11179;52.106;21.024;2023-09-12T13:52:22;100082.31;;;29.69;32.02
22031;BME280;11179;52.106;21.024;2023-09-12T13:54:51;100061.94;;;29.52;31.59
22031;BME280;11179;52.106;21.024;2023-09-12T13:57:20;100068.41;;;29.53;31.89
22031;BME280;11179;52.106;21.024;2023-09-12T13:59:56;100088.66;;;29.59;32.44
22031;BME280;11179;52.106;21.024;2023-09-12T14:02:22;100035.03;;;29.18;32.39
22031;BME280;11179;52.106;21.024;2023-09-12T14:04:51;100046.41;;;29.25;32.57
22031;BME280;11179;52.106;21.024;2023-09-12T14:07:27;100044.00;;;29.27;32.15
22031;BME280;11179;52.106;21.024;2023-09-12T14:09:55;100029.78;;;29.20;32.89
22031;BME280;11179;52.106;21.024;2023-09-12T14:12:23;100057.78;;;29.36;32.77
22031;BME280;11179;52.106;21.024;2023-09-12T14:14:52;100052.94;;;29.36;32.79
22031;BME280;11179;52.106;21.024;2023-09-12T14:17:20;100067.53;;;29.42;32.65
22031;BME280;11179;52.106;21.024;2023-09-12T14:19:46;100041.91;;;29.21;32.70
22031;BME280;11179;52.106;21.024;2023-09-12T14:22:14;100067.03;;;29.33;32.45
22031;BME280;11179;52.106;21.024;2023-09-12T14:24:43;100062.56;;;29.25;33.04
22031;BME280;11179;52.106;21.024;2023-09-12T14:27:14;100086.03;;;29.32;32.93
22031;BME280;11179;52.106;21.024;2023-09-12T14:30:00;100091.69;;;29.32;33.57
22031;BME280;11179;52.106;21.024;2023-09-12T14:35:26;100068.94;;;29.18;33.42
22031;BME280;11179;52.106;21.024;2023-09-12T14:37:58;100052.22;;;28.99;33.96
22031;BME280;11179;52.106;21.024;2023-09-12T14:40:27;100067.97;;;29.03;33.91
22031;BME280;11179;52.106;21.024;2023-09-12T14:42:55;100106.09;;;29.13;33.41
22031;BME280;11179;52.106;21.024;2023-09-12T14:45:21;100072.28;;;28.87;33.81
22031;BME280;11179;52.106;21.024;2023-09-12T14:47:48;100074.69;;;28.85;33.98
22031;BME280;11179;52.106;21.024;2023-09-12T14:50:14;100097.81;;;28.97;34.41
22031;BME280;11179;52.106;21.024;2023-09-12T14:52:39;100087.25;;;28.91;34.37
22031;BME280;11179;52.106;21.024;2023-09-12T14:55:07;100101.38;;;28.91;34.09
22031;BME280;11179;52.106;21.024;2023-09-12T14:57:34;100099.34;;;28.88;33.95
22031;BME280;11179;52.106;21.024;2023-09-12T14:59:59;100097.25;;;28.81;33.73
22031;BME280;11179;52.106;21.024;2023-09-12T15:02:25;100100.91;;;28.81;33.75
22031;BME280;11179;52.106;21.024;2023-09-12T15:04:57;100105.28;;;28.75;33.38
22031;BME280;11179;52.106;21.024;2023-09-12T15:07:26;100099.22;;;28.73;33.92
22031;BME280;11179;52.106;21.024;2023-09-12T15:09:52;100068.41;;;28.61;33.63
22031;BME280;11179;52.106;21.024;2023-09-12T15:12:18;100072.44;;;28.60;33.80
22031;BME280;11179;52.106;21.024;2023-09-12T15:14:43;100078.53;;;28.62;33.65
22031;BME280;11179;52.106;21.024;2023-09-12T15:17:09;100089.84;;;28.66;33.80
22031;BME280;11179;52.106;21.024;2023-09-12T15:19:34;100094.66;;;28.65;33.69
22031;BME280;11179;52.106;21.024;2023-09-12T15:22:07;100093.09;;;28.68;33.49
22031;BME280;11179;52.106;21.024;2023-09-12T15:24:38;100064.31;;;28.55;33.67
22031;BME280;11179;52.106;21.024;2023-09-12T15:27:14;100084.88;;;28.56;33.71
22031;BME280;11179;52.106;21.024;2023-09-12T15:29:40;100047.88;;;28.31;33.69